createdAt,value
2018-06-15T00:00:20.031Z,101007.27
2018-06-15T00:02:54.405Z,101009.05
2018-06-15T00:05:23.521Z,101000.66
2018-06-15T00:07:53.230Z,100999.86
2018-06-15T00:10:22.373Z,101000.58
2018-06-15T00:12:51.481Z,100994.15
2018-06-15T00:15:20.591Z,100997.78
2018-06-15T00:17:49.708Z,101000.42
2018-06-15T00:20:18.825Z,101001.23
2018-06-15T00:22:47.929Z,101001.82
2018-06-15T00:25:17.041Z,101002.89
2018-06-15T00:27:46.156Z,101002.64
2018-06-15T00:30:15.258Z,101006.53
2018-06-15T00:32:44.377Z,100998.24
2018-06-15T00:35:13.474Z,100998.91
2018-06-15T00:37:42.584Z,100999.77
2018-06-15T00:40:11.686Z,100996.20
2018-06-15T00:42:40.809Z,100996.05
2018-06-15T00:45:09.907Z,100991.45
2018-06-15T00:47:39.022Z,100995.41
2018-06-15T00:50:08.125Z,100988.12
2018-06-15T00:52:37.246Z,100984.82
2018-06-15T00:55:06.583Z,100991.33
2018-06-15T00:57:44.133Z,100991.73
2018-06-15T01:00:13.226Z,100990.86
2018-06-15T01:02:42.365Z,100994.53
2018-06-15T01:05:11.513Z,100997.00
2018-06-15T01:07:40.644Z,100997.00
2018-06-15T01:10:09.785Z,100992.64
2018-06-15T01:12:38.893Z,100995.27
2018-06-15T01:15:08.030Z,101001.45
2018-06-15T01:17:37.521Z,100996.98
2018-06-15T01:20:07.198Z,100991.14
2018-06-15T01:22:36.423Z,100995.62
2018-06-15T01:25:05.617Z,100992.77
2018-06-15T01:27:34.817Z,100993.72
2018-06-15T01:30:03.985Z,100991.01
2018-06-15T01:32:33.081Z,100991.02
2018-06-15T01:35:02.177Z,100983.95
2018-06-15T01:37:31.289Z,100983.83
2018-06-15T01:40:00.413Z,100985.13
2018-06-15T01:42:29.526Z,100978.84
2018-06-15T01:44:58.641Z,100984.56
2018-06-15T01:47:27.777Z,100985.06
2018-06-15T01:49:56.903Z,100971.72
2018-06-15T01:52:26.034Z,100970.95
2018-06-15T01:54:55.124Z,100975.97
2018-06-15T01:57:24.278Z,100967.86
2018-06-15T01:59:53.385Z,100967.86
2018-06-15T02:02:22.507Z,100964.45
2018-06-15T02:04:51.609Z,100964.79
2018-06-15T02:07:20.705Z,100967.27
2018-06-15T02:09:50.057Z,100966.48
2018-06-15T02:12:19.169Z,100962.45
2018-06-15T02:14:48.272Z,100962.25
2018-06-15T02:17:17.481Z,100960.42
2018-06-15T02:19:46.557Z,100966.58
2018-06-15T02:22:15.741Z,100960.84
2018-06-15T02:24:44.865Z,100956.13
2018-06-15T02:27:13.985Z,100957.40
2018-06-15T02:29:43.081Z,100957.69
2018-06-15T02:32:12.193Z,100942.80
2018-06-15T02:34:41.295Z,100947.33
2018-06-15T02:37:10.394Z,100952.13
2018-06-15T02:39:39.525Z,100951.24
2018-06-15T02:42:08.655Z,100945.22
2018-06-15T02:44:37.756Z,100949.73
2018-06-15T02:47:06.855Z,100947.05
2018-06-15T02:49:35.965Z,100950.91
2018-06-15T02:52:05.110Z,100956.17
2018-06-15T02:54:34.212Z,100957.59
2018-06-15T02:57:03.317Z,100960.42
2018-06-15T02:59:32.482Z,100963.06
2018-06-15T03:02:01.591Z,100965.16
2018-06-15T03:04:30.712Z,100964.31
2018-06-15T03:06:59.833Z,100965.91
2018-06-15T03:09:28.942Z,100963.42
2018-06-15T03:11:58.085Z,100966.93
2018-06-15T03:14:27.186Z,100964.80
2018-06-15T03:16:56.405Z,100969.70
2018-06-15T03:19:25.517Z,100968.46
2018-06-15T03:21:54.617Z,100975.36
2018-06-15T03:24:23.724Z,100975.36
2018-06-15T03:26:52.837Z,100970.33
2018-06-15T03:29:21.930Z,100974.06
2018-06-15T03:31:51.052Z,100968.44
2018-06-15T03:34:20.158Z,100975.73
2018-06-15T03:36:49.256Z,100974.02
2018-06-15T03:39:18.357Z,100970.23
2018-06-15T03:41:47.468Z,100974.25
2018-06-15T03:44:16.601Z,100977.19
2018-06-15T03:46:45.730Z,100975.91
2018-06-15T03:49:14.866Z,100976.37
2018-06-15T03:51:44.006Z,100975.72
2018-06-15T03:54:13.130Z,100980.75
2018-06-15T03:56:42.239Z,100980.72
2018-06-15T03:59:11.466Z,100987.28
2018-06-15T04:01:40.570Z,100992.53
2018-06-15T04:04:09.704Z,100995.10
2018-06-15T04:06:38.809Z,101002.59
2018-06-15T04:09:09.581Z,101001.02
2018-06-15T04:11:39.068Z,101002.84
2018-06-15T04:14:08.198Z,101005.08
2018-06-15T04:16:37.341Z,101004.13
2018-06-15T04:19:06.541Z,101001.94
2018-06-15T04:21:35.659Z,101004.56
2018-06-15T04:24:04.767Z,101005.02
2018-06-15T04:26:33.929Z,101012.59
2018-06-15T04:29:03.061Z,101006.22
2018-06-15T04:31:32.213Z,101003.90
2018-06-15T04:34:01.317Z,101007.39
2018-06-15T04:36:30.493Z,101002.89
2018-06-15T04:38:59.658Z,101005.87
2018-06-15T04:41:28.846Z,101006.48
2018-06-15T04:43:58.041Z,100998.40
2018-06-15T04:46:27.117Z,101000.66
2018-06-15T04:48:56.253Z,101002.16
2018-06-15T04:51:25.343Z,101005.97
2018-06-15T04:53:54.448Z,101001.02
2018-06-15T04:56:23.581Z,100999.31
2018-06-15T04:58:52.637Z,101002.55
2018-06-15T05:01:21.753Z,101001.41
2018-06-15T05:03:50.853Z,101002.66
2018-06-15T05:06:20.061Z,101002.82
2018-06-15T05:08:49.174Z,101004.53
2018-06-15T05:11:18.277Z,101009.58
2018-06-15T05:13:47.374Z,101009.05
2018-06-15T05:16:16.493Z,101009.73
2018-06-15T05:18:45.663Z,101013.34
2018-06-15T05:21:15.146Z,101018.52
2018-06-15T05:23:44.229Z,101015.38
2018-06-15T05:26:13.365Z,101013.61
2018-06-15T05:28:42.511Z,101019.36
2018-06-15T05:31:11.617Z,101015.75
2018-06-15T05:33:40.734Z,101010.70
2018-06-15T05:36:09.849Z,101012.47
2018-06-15T05:38:38.945Z,101021.64
2018-06-15T05:41:08.042Z,101015.58
2018-06-15T05:43:37.181Z,101015.72
2018-06-15T05:46:06.290Z,101023.89
2018-06-15T05:48:35.490Z,101026.34
2018-06-15T05:51:04.582Z,101026.54
2018-06-15T05:53:33.690Z,101016.52
2018-06-15T05:56:02.814Z,101018.81
2018-06-15T05:58:31.925Z,101019.26
2018-06-15T06:01:01.130Z,101021.88
2018-06-15T06:03:30.250Z,101025.30
2018-06-15T06:05:59.382Z,101030.88
2018-06-15T06:08:28.678Z,101037.30
2018-06-15T06:10:57.798Z,101041.68
2018-06-15T06:13:26.974Z,101048.22
2018-06-15T06:15:56.077Z,101041.83
2018-06-15T06:18:25.167Z,101044.88
2018-06-15T06:20:54.309Z,101047.80
2018-06-15T06:23:23.443Z,101052.13
2018-06-15T06:25:52.617Z,101056.30
2018-06-15T06:28:21.729Z,101052.28
2018-06-15T06:30:50.841Z,101051.13
2018-06-15T06:33:19.945Z,101051.56
2018-06-15T06:35:49.086Z,101048.93
2018-06-15T06:38:18.230Z,101056.38
2018-06-15T06:40:47.349Z,101052.07
2018-06-15T06:43:16.477Z,101054.91
2018-06-15T06:45:45.578Z,101065.68
2018-06-15T06:48:14.685Z,101059.39
2018-06-15T06:50:43.794Z,101050.70
2018-06-15T06:53:12.917Z,101052.63
2018-06-15T06:55:42.018Z,101056.22
2018-06-15T06:58:11.229Z,101067.67
2018-06-15T07:00:40.581Z,101068.73
2018-06-15T07:03:09.689Z,101062.52
2018-06-15T07:05:38.797Z,101058.17
2018-06-15T07:08:07.894Z,101062.27
2018-06-15T07:10:36.993Z,101061.23
2018-06-15T07:13:06.130Z,101054.14
2018-06-15T07:15:35.237Z,101060.37
2018-06-15T07:18:04.343Z,101056.91
2018-06-15T07:20:33.535Z,101053.77
2018-06-15T07:23:02.721Z,101058.80
2018-06-15T07:25:31.831Z,101055.92
2018-06-15T07:28:00.940Z,101058.78
2018-06-15T07:30:30.061Z,101056.27
2018-06-15T07:32:59.169Z,101061.33
2018-06-15T07:35:28.333Z,101058.08
2018-06-15T07:37:57.431Z,101063.23
2018-06-15T07:40:26.577Z,101067.64
2018-06-15T07:42:55.681Z,101063.13
2018-06-15T07:45:24.773Z,101069.44
2018-06-15T07:47:53.883Z,101065.19
2018-06-15T07:50:22.986Z,101065.26
2018-06-15T07:52:52.186Z,101063.68
2018-06-15T07:55:21.306Z,101071.21
2018-06-15T07:57:50.417Z,101067.30
2018-06-15T08:00:19.502Z,101061.87
2018-06-15T08:02:48.621Z,101061.39
2018-06-15T08:05:17.725Z,101067.84
2018-06-15T08:07:46.841Z,101069.89
2018-06-15T08:10:16.067Z,101070.38
2018-06-15T08:12:45.117Z,101069.72
2018-06-15T08:15:14.265Z,101072.48
2018-06-15T08:17:43.402Z,101064.72
2018-06-15T08:20:12.541Z,101069.28
2018-06-15T08:22:41.634Z,101069.22
2018-06-15T08:25:10.768Z,101063.48
2018-06-15T08:27:39.875Z,101064.73
2018-06-15T08:30:08.969Z,101064.23
2018-06-15T08:32:38.101Z,101060.05
2018-06-15T08:35:07.219Z,101062.39
2018-06-15T08:37:36.353Z,101061.33
2018-06-15T08:40:05.513Z,101059.33
2018-06-15T08:42:34.703Z,101055.16
2018-06-15T08:45:03.921Z,101056.81
2018-06-15T08:47:33.021Z,101057.28
2018-06-15T08:50:02.137Z,101058.23
2018-06-15T08:52:31.275Z,101062.69
2018-06-15T08:55:00.422Z,101048.80
2018-06-15T08:57:29.518Z,101050.13
2018-06-15T08:59:58.701Z,101053.52
2018-06-15T09:02:27.843Z,101047.85
2018-06-15T09:04:56.985Z,101051.34
2018-06-15T09:07:27.049Z,101047.40
2018-06-15T09:09:56.165Z,101037.56
2018-06-15T09:12:25.486Z,101036.73
2018-06-15T09:14:54.612Z,101039.05
2018-06-15T09:17:23.708Z,101030.32
2018-06-15T09:19:52.849Z,101034.38
2018-06-15T09:22:21.952Z,101038.64
2018-06-15T09:24:51.428Z,101037.38
2018-06-15T09:27:20.525Z,101042.45
2018-06-15T09:29:49.633Z,101033.34
2018-06-15T09:32:18.741Z,101035.41
2018-06-15T09:34:47.913Z,101033.22
2018-06-15T09:37:17.015Z,101040.06
2018-06-15T09:39:46.257Z,101032.33
2018-06-15T09:42:15.349Z,101044.08
2018-06-15T09:44:44.463Z,101035.23
2018-06-15T09:47:13.567Z,101042.20
2018-06-15T09:49:42.665Z,101041.79
2018-06-15T09:52:11.777Z,101037.50
2018-06-15T09:54:40.877Z,101047.13
2018-06-15T09:57:10.030Z,101044.14
2018-06-15T09:59:39.173Z,101044.67
2018-06-15T10:02:08.322Z,101039.61
2018-06-15T10:04:37.477Z,101048.27
2018-06-15T10:07:06.593Z,101046.29
2018-06-15T10:09:35.709Z,101040.86
2018-06-15T10:12:04.824Z,101040.36
2018-06-15T10:14:33.940Z,101040.20
2018-06-15T10:17:03.058Z,101043.29
2018-06-15T10:19:32.176Z,101037.98
2018-06-15T10:22:01.302Z,101036.13
2018-06-15T10:24:30.414Z,101032.21
2018-06-15T10:26:59.550Z,101030.42
2018-06-15T10:29:28.680Z,101025.80
2018-06-15T10:31:57.805Z,101024.36
2018-06-15T10:34:26.908Z,101028.59
2018-06-15T10:36:56.030Z,101019.05
2018-06-15T10:39:25.192Z,101023.44
2018-06-15T10:41:54.279Z,101022.05
2018-06-15T10:44:23.385Z,101023.41
2018-06-15T10:46:52.676Z,101027.70
2018-06-15T10:49:21.789Z,101016.66
2018-06-15T10:51:50.897Z,101029.09
2018-06-15T10:54:20.001Z,101022.54
2018-06-15T10:56:49.106Z,101018.44
2018-06-15T10:59:18.214Z,101022.73
2018-06-15T11:01:47.325Z,101022.86
2018-06-15T11:04:16.417Z,101022.70
2018-06-15T11:06:45.520Z,101019.55
2018-06-15T11:09:14.639Z,101017.05
2018-06-15T11:11:43.733Z,101023.01
2018-06-15T11:14:12.844Z,101021.59
2018-06-15T11:16:41.980Z,101022.83
2018-06-15T11:19:11.301Z,101020.54
2018-06-15T11:21:40.405Z,101015.03
2018-06-15T11:24:09.537Z,101016.52
2018-06-15T11:26:38.687Z,101007.19
2018-06-15T11:29:07.878Z,101007.03
2018-06-15T11:31:37.006Z,101011.20
2018-06-15T11:34:06.127Z,101005.19
2018-06-15T11:36:35.262Z,101000.87
2018-06-15T11:39:06.177Z,100998.03
2018-06-15T11:41:35.446Z,101004.17
2018-06-15T11:44:04.913Z,100997.05
2018-06-15T11:46:34.191Z,100993.56
2018-06-15T11:49:03.517Z,101004.89
2018-06-15T11:51:32.633Z,101000.80
2018-06-15T11:54:01.758Z,100997.56
2018-06-15T11:56:31.106Z,100996.58
2018-06-15T11:59:00.199Z,100998.92
2018-06-15T12:01:29.305Z,100992.48
2018-06-15T12:03:58.426Z,100998.50
2018-06-15T12:06:27.557Z,100993.20
2018-06-15T12:08:56.701Z,100990.36
2018-06-15T12:11:25.801Z,100987.49
2018-06-15T12:13:54.886Z,100986.32
2018-06-15T12:16:23.957Z,100985.03
2018-06-15T12:18:53.356Z,100983.42
2018-06-15T12:21:22.491Z,100982.77
2018-06-15T12:23:51.594Z,100984.19
2018-06-15T12:26:20.685Z,100980.77
2018-06-15T12:28:49.813Z,100988.57
2018-06-15T12:31:18.974Z,100981.33
2018-06-15T12:33:48.077Z,100979.09
2018-06-15T12:36:17.228Z,100966.92
2018-06-15T12:38:46.346Z,100972.75
2018-06-15T12:41:15.437Z,100964.88
2018-06-15T12:43:44.538Z,100969.99
2018-06-15T12:46:13.689Z,100971.50
2018-06-15T12:48:42.838Z,100969.50
2018-06-15T12:51:11.925Z,100966.80
2018-06-15T12:53:41.065Z,100962.25
2018-06-15T12:56:10.182Z,100960.69
2018-06-15T12:58:39.294Z,100964.30
2018-06-15T13:01:08.409Z,100959.34
2018-06-15T13:03:37.540Z,100966.83
2018-06-15T13:06:06.629Z,100967.88
2018-06-15T13:08:35.755Z,100966.73
2018-06-15T13:11:04.889Z,100962.58
2018-06-15T13:13:35.074Z,100962.28
2018-06-15T13:16:04.185Z,100965.39
2018-06-15T13:18:33.502Z,100963.24
2018-06-15T13:21:02.715Z,100960.23
2018-06-15T13:23:31.911Z,100954.92
2018-06-15T13:26:01.108Z,100948.60
2018-06-15T13:28:30.215Z,100954.13
2018-06-15T13:30:59.373Z,100955.36
2018-06-15T13:33:28.545Z,100954.56
2018-06-15T13:35:58.658Z,100954.34
2018-06-15T13:38:27.775Z,100958.66
2018-06-15T13:40:56.889Z,100965.58
2018-06-15T13:43:25.992Z,100963.22
2018-06-15T13:45:55.133Z,100963.53
2018-06-15T13:48:24.225Z,100961.36
2018-06-15T13:50:53.318Z,100963.78
2018-06-15T13:53:22.396Z,100965.33
2018-06-15T13:55:51.506Z,100964.65
2018-06-15T13:58:20.646Z,100962.11
2018-06-15T14:00:49.767Z,100953.86
2018-06-15T14:03:18.945Z,100961.12
2018-06-15T14:05:48.058Z,100946.94
2018-06-15T14:08:17.194Z,100951.47
2018-06-15T14:10:46.266Z,100937.55
2018-06-15T14:13:15.373Z,100943.81
2018-06-15T14:15:44.476Z,100946.41
2018-06-15T14:18:13.564Z,100949.63
2018-06-15T14:20:42.658Z,100949.36
2018-06-15T14:23:11.785Z,100944.28
2018-06-15T14:25:40.870Z,100935.52
2018-06-15T14:28:10.050Z,100938.44
2018-06-15T14:30:39.401Z,100946.16
2018-06-15T14:33:08.505Z,100941.91
2018-06-15T14:35:37.621Z,100939.14
2018-06-15T14:38:06.706Z,100941.02
2018-06-15T14:40:35.837Z,100930.92
2018-06-15T14:43:04.918Z,100930.42
2018-06-15T14:45:34.025Z,100926.36
2018-06-15T14:48:03.138Z,100922.66
2018-06-15T14:50:32.230Z,100926.56
2018-06-15T14:53:01.366Z,100927.02
2018-06-15T14:55:31.302Z,100930.42
2018-06-15T14:58:00.406Z,100932.81
2018-06-15T15:00:29.511Z,100930.80
2018-06-15T15:02:58.700Z,100926.43
2018-06-15T15:05:27.801Z,100917.14
2018-06-15T15:07:56.975Z,100927.50
2018-06-15T15:10:26.185Z,100931.52
2018-06-15T15:12:55.398Z,100923.63
2018-06-15T15:15:25.018Z,100923.45
2018-06-15T15:17:54.346Z,100923.47
2018-06-15T15:20:23.446Z,100929.56
2018-06-15T15:22:52.619Z,100921.37
2018-06-15T15:25:21.790Z,100930.66
2018-06-15T15:27:50.895Z,100931.38
2018-06-15T15:30:20.010Z,100929.40
2018-06-15T15:32:49.105Z,100928.60
2018-06-15T15:35:18.194Z,100920.77
2018-06-15T15:37:47.309Z,100921.11
2018-06-15T15:40:16.401Z,100922.34
2018-06-15T15:42:45.589Z,100908.70
2018-06-15T15:45:14.697Z,100905.38
2018-06-15T15:47:43.787Z,100912.38
2018-06-15T15:50:12.933Z,100909.47
2018-06-15T15:52:42.073Z,100907.59
2018-06-15T15:55:11.186Z,100907.03
2018-06-15T15:57:40.306Z,100904.55
2018-06-15T16:00:09.430Z,100898.75
2018-06-15T16:02:38.537Z,100892.98
2018-06-15T16:05:07.673Z,100890.78
2018-06-15T16:07:36.769Z,100898.08
2018-06-15T16:10:05.901Z,100895.25
2018-06-15T16:12:35.009Z,100892.58
2018-06-15T16:15:04.157Z,100884.40
2018-06-15T16:17:33.261Z,100887.50
2018-06-15T16:20:02.373Z,100886.01
2018-06-15T16:22:31.506Z,100882.27
2018-06-15T16:25:00.603Z,100885.18
2018-06-15T16:27:29.735Z,100882.99
2018-06-15T16:29:58.857Z,100883.45
2018-06-15T16:32:27.986Z,100883.82
2018-06-15T16:34:57.354Z,100873.80
2018-06-15T16:37:26.965Z,100880.27
2018-06-15T16:39:56.131Z,100878.87
2018-06-15T16:42:25.245Z,100878.29
2018-06-15T16:44:54.328Z,100880.51
2018-06-15T16:47:23.473Z,100887.39
2018-06-15T16:49:52.602Z,100889.59
2018-06-15T16:52:21.686Z,100882.12
2018-06-15T16:54:50.806Z,100876.95
2018-06-15T16:57:19.922Z,100882.02
2018-06-15T16:59:49.033Z,100878.64
2018-06-15T17:02:18.139Z,100881.77
2018-06-15T17:04:47.244Z,100883.57
2018-06-15T17:07:16.333Z,100881.72
2018-06-15T17:09:45.490Z,100879.44
2018-06-15T17:12:14.590Z,100879.70
2018-06-15T17:14:43.674Z,100871.32
2018-06-15T17:17:12.816Z,100879.84
2018-06-15T17:19:41.945Z,100895.92
2018-06-15T17:22:11.058Z,100889.84
2018-06-15T17:24:40.178Z,100881.20
2018-06-15T17:27:09.295Z,100885.92
2018-06-15T17:29:38.382Z,100881.41
2018-06-15T17:32:07.515Z,100882.19
2018-06-15T17:34:36.621Z,100881.48
2018-06-15T17:37:05.996Z,100879.72
2018-06-15T17:39:35.110Z,100875.34
2018-06-15T17:42:04.237Z,100878.15
2018-06-15T17:44:33.436Z,100877.30
2018-06-15T17:47:02.478Z,100881.43
2018-06-15T17:49:31.633Z,100888.34
2018-06-15T17:52:00.743Z,100887.32
2018-06-15T17:54:29.841Z,100879.95
2018-06-15T17:56:59.069Z,100883.91
2018-06-15T17:59:28.194Z,100890.84
2018-06-15T18:01:57.298Z,100893.38
2018-06-15T18:04:26.412Z,100893.11
2018-06-15T18:06:55.505Z,100892.67
2018-06-15T18:09:24.598Z,100891.65
2018-06-15T18:11:53.718Z,100897.63
2018-06-15T18:14:22.794Z,100897.88
2018-06-15T18:16:51.890Z,100895.45
2018-06-15T18:19:20.997Z,100901.40
2018-06-15T18:21:50.157Z,100894.13
2018-06-15T18:24:19.305Z,100893.73
2018-06-15T18:26:48.476Z,100891.64
2018-06-15T18:29:17.583Z,100889.54
2018-06-15T18:31:46.798Z,100889.17
2018-06-15T18:34:15.994Z,100885.66
2018-06-15T18:36:45.327Z,100889.66
2018-06-15T18:39:15.157Z,100895.36
2018-06-15T18:41:44.525Z,100893.20
2018-06-15T18:44:13.659Z,100885.56
2018-06-15T18:46:42.761Z,100889.69
2018-06-15T18:49:11.936Z,100896.62
2018-06-15T18:51:41.016Z,100888.94
2018-06-15T18:54:10.137Z,100895.25
2018-06-15T18:56:39.232Z,100894.43
2018-06-15T18:59:08.374Z,100894.61
2018-06-15T19:01:37.548Z,100888.31
2018-06-15T19:04:07.165Z,100889.61
2018-06-15T19:06:36.270Z,100885.41
2018-06-15T19:09:08.029Z,100887.26
2018-06-15T19:11:37.133Z,100892.03
2018-06-15T19:14:06.280Z,100891.82
2018-06-15T19:16:35.403Z,100883.91
2018-06-15T19:19:04.497Z,100892.11
2018-06-15T19:21:33.573Z,100889.36
2018-06-15T19:24:02.729Z,100888.18
2018-06-15T19:26:31.924Z,100891.59
2018-06-15T19:29:01.076Z,100892.77
2018-06-15T19:31:30.177Z,100888.12
2018-06-15T19:33:59.262Z,100891.74
2018-06-15T19:36:28.349Z,100896.43
2018-06-15T19:38:57.453Z,100894.36
2018-06-15T19:41:26.564Z,100893.18
2018-06-15T19:43:55.650Z,100888.28
2018-06-15T19:46:24.801Z,100885.30
2018-06-15T19:48:53.950Z,100887.89
2018-06-15T19:51:23.070Z,100889.41
2018-06-15T19:53:52.210Z,100897.63
2018-06-15T19:56:21.318Z,100900.56
2018-06-15T19:58:50.443Z,100893.12
2018-06-15T20:01:19.595Z,100893.55
2018-06-15T20:03:48.677Z,100897.04
2018-06-15T20:06:17.761Z,100891.95
2018-06-15T20:08:46.925Z,100892.77
2018-06-15T20:11:16.122Z,100895.33
2018-06-15T20:13:45.317Z,100893.82
2018-06-15T20:16:14.460Z,100904.77
2018-06-15T20:18:43.685Z,100900.70
2018-06-15T20:21:12.937Z,100900.03
2018-06-15T20:23:42.102Z,100900.63
2018-06-15T20:26:11.206Z,100903.45
2018-06-15T20:28:40.344Z,100906.83
2018-06-15T20:31:11.283Z,100904.81
2018-06-15T20:33:40.435Z,100905.05
2018-06-15T20:36:09.699Z,100904.91
2018-06-15T20:38:38.761Z,100909.69
2018-06-15T20:41:07.978Z,100905.95
2018-06-15T20:43:37.197Z,100905.45
2018-06-15T20:46:06.301Z,100901.89
2018-06-15T20:48:35.397Z,100911.80
2018-06-15T20:51:04.541Z,100914.94
2018-06-15T20:53:33.698Z,100909.66
2018-06-15T20:56:02.785Z,100909.78
2018-06-15T20:58:32.044Z,100898.48
2018-06-15T21:01:01.138Z,100904.09
2018-06-15T21:03:30.233Z,100904.37
2018-06-15T21:05:59.382Z,100900.08
2018-06-15T21:08:28.485Z,100899.39
2018-06-15T21:10:57.605Z,100903.69
2018-06-15T21:13:26.697Z,100895.23
2018-06-15T21:15:55.819Z,100899.66
2018-06-15T21:18:24.981Z,100891.85
2018-06-15T21:20:54.572Z,100889.81
2018-06-15T21:23:23.742Z,100892.27
2018-06-15T21:25:52.853Z,100891.09
2018-06-15T21:28:22.081Z,100888.35
2018-06-15T21:30:51.538Z,100893.44
2018-06-15T21:33:20.749Z,100892.93
2018-06-15T21:35:49.925Z,100900.02
2018-06-15T21:38:19.042Z,100898.72
2018-06-15T21:40:48.145Z,100886.65
2018-06-15T21:43:17.262Z,100888.70
2018-06-15T21:45:46.394Z,100892.27
2018-06-15T21:48:15.665Z,100893.63
2018-06-15T21:50:44.766Z,100892.55
2018-06-15T21:53:13.852Z,100889.31
2018-06-15T21:55:42.963Z,100889.47
2018-06-15T21:58:12.078Z,100882.95
2018-06-15T22:00:41.318Z,100889.47
2018-06-15T22:03:10.450Z,100894.63
2018-06-15T22:05:39.559Z,100888.89
2018-06-15T22:08:08.681Z,100894.47
2018-06-15T22:10:37.833Z,100899.50
2018-06-15T22:13:07.066Z,100903.75
2018-06-15T22:15:36.195Z,100895.26
2018-06-15T22:18:05.470Z,100896.95
2018-06-15T22:20:34.634Z,100902.29
2018-06-15T22:23:03.781Z,100897.83
2018-06-15T22:25:32.885Z,100904.39
2018-06-15T22:28:01.994Z,100907.44
2018-06-15T22:30:31.090Z,100905.30
2018-06-15T22:33:00.182Z,100907.81
2018-06-15T22:35:29.289Z,100898.70
2018-06-15T22:37:58.385Z,100902.25
2018-06-15T22:40:27.473Z,100908.39
2018-06-15T22:42:56.580Z,100916.89
2018-06-15T22:45:25.665Z,100918.73
2018-06-15T22:47:54.762Z,100917.66
2018-06-15T22:50:23.893Z,100918.57
2018-06-15T22:52:53.028Z,100915.82
2018-06-15T22:55:22.109Z,100909.09
2018-06-15T22:57:51.301Z,100909.69
2018-06-15T23:00:24.261Z,100912.66
2018-06-15T23:02:53.357Z,100915.52
2018-06-15T23:05:22.650Z,100917.06
2018-06-15T23:07:51.867Z,100909.64
2018-06-15T23:10:21.031Z,100909.22
2018-06-15T23:12:50.260Z,100909.20
2018-06-15T23:15:19.346Z,100920.07
2018-06-15T23:17:48.450Z,100918.52
2018-06-15T23:20:17.553Z,100918.52
2018-06-15T23:22:46.672Z,100914.80
2018-06-15T23:25:15.781Z,100914.60
2018-06-15T23:27:44.876Z,100917.31
2018-06-15T23:30:14.012Z,100921.03
2018-06-15T23:32:43.127Z,100920.19
2018-06-15T23:35:12.213Z,100912.22
2018-06-15T23:37:41.333Z,100924.09
2018-06-15T23:40:10.474Z,100926.72
2018-06-15T23:42:39.601Z,100924.87
2018-06-15T23:45:08.697Z,100920.73
2018-06-15T23:47:37.893Z,100917.20
2018-06-15T23:50:07.504Z,100912.22
2018-06-15T23:52:36.614Z,100917.98
2018-06-15T23:55:05.859Z,100918.55
2018-06-15T23:57:34.969Z,100924.09
